Time;durP1;ratioP1;P1;durP2;ratioP2;P2;SDS_P1;SDS_P2;PMS_P1;PMS_P2;Temp;Humidity;BMP_temperature;BMP_pressure;BME280_temperature;BME280_humidity;BME280_pressure;Samples;Min_cycle;Max_cycle;Signal;HPM_P1;HPM_P2
2021/06/04 00:01:14;;;;;;;14.90;8.67;;;;;;;13.58;68.53;101099.84;5075081;28;20033;-63
2021/06/04 00:03:40;;;;;;;15.48;7.72;;;;;;;13.54;68.83;101110.34;5075153;28;20056;-64
2021/06/04 00:06:07;;;;;;;13.27;7.35;;;;;;;13.51;69.16;101111.16;5074924;28;20093;-63
2021/06/04 00:08:33;;;;;;;14.45;8.35;;;;;;;13.47;69.86;101105.53;5075165;28;20048;-64
2021/06/04 00:11:08;;;;;;;13.52;8.00;;;;;;;13.45;69.77;101101.50;5064917;28;20410;-63
2021/06/04 00:13:47;;;;;;;12.80;7.72;;;;;;;13.39;69.40;101098.25;5077663;28;20034;-64
2021/06/04 00:16:17;;;;;;;9.98;7.68;;;;;;;13.37;70.10;101105.53;5077812;28;20373;-64
2021/06/04 00:18:44;;;;;;;11.47;6.97;;;;;;;13.30;69.85;101107.16;5078697;28;20029;-64
2021/06/04 00:21:18;;;;;;;8.35;6.80;;;;;;;13.25;69.96;101101.91;5078798;28;20017;-64
2021/06/04 00:23:44;;;;;;;12.95;6.97;;;;;;;13.21;69.44;101106.75;5078581;28;20032;-64
2021/06/04 00:26:11;;;;;;;13.05;7.22;;;;;;;13.18;69.51;101101.91;5078540;28;20035;-64
2021/06/04 00:28:36;;;;;;;11.57;7.03;;;;;;;13.16;69.78;101109.16;5078372;28;20024;-64
2021/06/04 00:31:03;;;;;;;11.07;6.75;;;;;;;13.12;69.39;101108.31;5078735;28;20043;-64
2021/06/04 00:33:29;;;;;;;11.77;6.97;;;;;;;13.06;69.46;101115.56;5078632;28;20040;-64
2021/06/04 00:35:55;;;;;;;13.88;6.68;;;;;;;13.00;69.87;101113.16;5078286;28;20108;-63
2021/06/04 00:38:20;;;;;;;15.05;7.47;;;;;;;12.97;70.02;101110.34;5078323;28;20048;-64
2021/06/04 00:40:53;;;;;;;10.07;6.75;;;;;;;12.95;70.25;101107.13;5078092;28;20045;-64
2021/06/04 00:43:20;;;;;;;11.93;6.43;;;;;;;12.93;69.97;101115.97;5078813;28;20035;-63
2021/06/04 00:45:49;;;;;;;15.35;6.88;;;;;;;12.91;70.24;101114.78;5078122;28;20056;-65
2021/06/04 00:48:16;;;;;;;14.20;6.68;;;;;;;12.86;70.33;101109.50;5078146;28;20020;-65
2021/06/04 00:50:52;;;;;;;12.60;7.40;;;;;;;12.81;70.25;101107.09;5065326;28;20028;-65
2021/06/04 00:53:21;;;;;;;13.95;6.80;;;;;;;12.79;70.43;101106.69;5078292;28;20104;-63
2021/06/04 00:55:47;;;;;;;19.23;7.75;;;;;;;12.76;70.15;101113.13;5077996;28;20081;-64
2021/06/04 00:58:18;;;;;;;11.13;6.65;;;;;;;12.75;69.93;101114.34;5078781;28;20111;-65
2021/06/04 01:00:50;;;;;;;12.60;7.00;;;;;;;12.74;70.46;101116.34;5077770;28;20157;-64
2021/06/04 01:03:19;;;;;;;15.25;7.60;;;;;;;12.70;70.20;101112.72;5078436;28;20060;-63
2021/06/04 01:05:45;;;;;;;12.32;7.43;;;;;;;12.65;70.30;101108.28;5077991;28;20028;-64
2021/06/04 01:08:25;;;;;;;12.98;8.20;;;;;;;12.61;70.63;101107.47;5077640;28;20016;-63
2021/06/04 01:11:11;;;;;;;11.48;7.22;;;;;;;12.57;70.80;101109.44;5078180;28;20043;-64
2021/06/04 01:13:51;;;;;;;12.20;6.97;;;;;;;12.56;70.88;101121.13;5077670;28;20060;-63
2021/06/04 01:16:22;;;;;;;14.82;7.25;;;;;;;12.54;70.71;101107.44;5077698;28;20024;-65
2021/06/04 01:19:01;;;;;;;11.85;6.88;;;;;;;12.60;70.67;101113.47;5077627;28;20059;-64
2021/06/04 01:21:39;;;;;;;13.32;7.35;;;;;;;12.69;70.74;101120.38;5077403;28;20350;-63
2021/06/04 01:24:38;;;;;;;13.00;7.68;;;;;;;12.73;70.16;101113.94;5076579;28;20289;-63
2021/06/04 01:27:09;;;;;;;11.10;7.18;;;;;;;12.66;70.04;101121.19;5077591;28;20064;-64
2021/06/04 01:29:41;;;;;;;13.95;6.97;;;;;;;12.60;70.23;101114.31;5051919;28;20035;-64
2021/06/04 01:32:15;;;;;;;12.10;7.95;;;;;;;12.54;69.89;101107.44;5057426;28;20086;-63
2021/06/04 01:34:45;;;;;;;11.65;6.45;;;;;;;12.47;70.25;101115.88;5057566;28;20035;-64
2021/06/04 01:37:19;;;;;;;10.30;7.05;;;;;;;12.41;70.27;101117.47;5056994;28;20037;-62
2021/06/04 01:39:49;;;;;;;9.75;7.03;;;;;;;12.36;70.82;101112.22;5057241;28;20033;-65
2021/06/04 01:42:18;;;;;;;10.60;6.97;;;;;;;12.34;71.18;101111.81;5056156;28;20408;-64
2021/06/04 01:44:50;;;;;;;13.55;7.03;;;;;;;12.32;71.47;101109.38;5057127;28;20029;-64
2021/06/04 01:47:26;;;;;;;9.77;6.95;;;;;;;12.28;71.16;101108.56;5057102;28;20300;-61
2021/06/04 01:49:53;;;;;;;11.32;7.30;;;;;;;12.24;71.10;101106.94;5057057;28;20420;-62
2021/06/04 01:52:28;;;;;;;17.27;7.85;;;;;;;12.20;71.36;101114.56;5056654;28;20029;-62
2021/06/04 01:55:09;;;;;;;10.98;6.68;;;;;;;12.18;71.33;101111.34;5057064;28;20064;-62
2021/06/04 01:57:39;;;;;;;13.50;6.68;;;;;;;12.18;71.42;101119.81;5056808;28;20408;-62
2021/06/04 02:00:29;;;;;;;9.73;6.97;;;;;;;12.22;71.47;101112.16;5056995;28;20048;-63
2021/06/04 02:02:56;;;;;;;10.60;6.50;;;;;;;12.27;70.79;101117.41;5056386;28;20366;-63
2021/06/04 02:05:26;;;;;;;10.45;6.63;;;;;;;12.24;70.95;101115.38;5056671;28;20087;-62
2021/06/04 02:07:52;;;;;;;14.77;6.28;;;;;;;12.17;70.51;101119.00;5056598;28;20027;-63
2021/06/04 02:10:34;;;;;;;10.73;7.07;;;;;;;12.16;71.34;101116.56;5056714;28;20111;-63
2021/06/04 02:13:02;;;;;;;10.38;6.40;;;;;;;12.16;70.85;101125.03;5056402;28;20020;-63
2021/06/04 02:15:31;;;;;;;8.65;6.50;;;;;;;12.13;71.08;101120.19;5056634;28;20078;-63
2021/06/04 02:18:08;;;;;;;11.52;6.95;;;;;;;12.08;71.42;101115.75;5055380;28;20048;-63
2021/06/04 02:20:38;;;;;;;12.32;6.50;;;;;;;12.02;71.03;101115.28;5056409;28;20036;-62
2021/06/04 02:23:16;;;;;;;10.52;6.53;;;;;;;11.97;71.40;101121.31;5056322;28;20075;-62
2021/06/04 02:25:53;;;;;;;10.68;6.82;;;;;;;11.94;71.75;101126.94;5056306;28;20120;-63
2021/06/04 02:28:26;;;;;;;11.88;7.05;;;;;;;11.89;71.86;101125.28;5056084;28;20324;-63
2021/06/04 02:31:12;;;;;;;9.40;6.63;;;;;;;11.85;71.87;101124.47;5056659;28;20094;-64
2021/06/04 02:33:43;;;;;;;10.88;6.72;;;;;;;11.82;71.94;101130.91;5055418;28;20366;-63
2021/06/04 02:36:16;;;;;;;15.43;7.35;;;;;;;11.80;72.14;101127.66;5059603;28;20107;-63
2021/06/04 02:38:49;;;;;;;12.18;6.55;;;;;;;11.75;72.15;101125.16;5055595;28;20442;-63
2021/06/04 02:41:22;;;;;;;12.63;6.70;;;;;;;11.72;72.02;101128.78;5056309;28;20052;-62
2021/06/04 02:43:52;;;;;;;11.52;6.65;;;;;;;11.69;72.40;101127.56;5055935;28;20017;-63
2021/06/04 02:46:25;;;;;;;9.65;6.47;;;;;;;11.70;72.39;101119.91;5056051;28;20593;-63
2021/06/04 02:48:52;;;;;;;9.23;6.93;;;;;;;11.69;72.44;101126.75;5055596;28;20021;-63
2021/06/04 02:51:35;;;;;;;11.73;7.60;;;;;;;11.66;72.88;101130.34;5055957;28;20028;-63
2021/06/04 02:54:14;;;;;;;11.88;7.38;;;;;;;11.65;72.58;101138.00;5055785;28;20029;-64
2021/06/04 02:56:49;;;;;;;10.75;7.20;;;;;;;11.61;71.81;101128.72;5055723;28;20021;-64
2021/06/04 02:59:21;;;;;;;10.85;6.20;;;;;;;11.58;72.69;101128.69;5055816;28;20082;-63
2021/06/04 03:01:55;;;;;;;17.52;7.10;;;;;;;11.56;72.99;101137.53;5055910;28;20025;-63
2021/06/04 03:04:21;;;;;;;10.63;7.47;;;;;;;11.55;73.03;101137.94;5055552;28;20031;-63
2021/06/04 03:06:53;;;;;;;11.77;6.70;;;;;;;11.54;73.02;101137.13;5055778;28;20020;-63
2021/06/04 03:09:28;;;;;;;13.25;7.10;;;;;;;11.55;72.80;101135.91;5055421;28;20040;-62
2021/06/04 03:11:57;;;;;;;13.15;6.95;;;;;;;11.52;73.15;101133.88;5052874;28;20028;-64
2021/06/04 03:14:23;;;;;;;16.83;6.85;;;;;;;11.52;73.05;101138.72;5048029;28;20025;-65
2021/06/04 03:16:51;;;;;;;15.68;7.07;;;;;;;11.49;72.96;101143.09;5046108;28;20598;-64
2021/06/04 03:19:18;;;;;;;14.50;7.18;;;;;;;11.47;72.99;101145.50;5050667;28;20111;-63
2021/06/04 03:21:50;;;;;;;15.10;6.63;;;;;;;11.50;73.62;101167.22;5055497;28;20086;-64
2021/06/04 03:24:20;;;;;;;14.10;7.65;;;;;;;11.55;73.39;101158.44;5055455;28;20025;-63
2021/06/04 03:26:46;;;;;;;12.43;7.00;;;;;;;11.55;72.69;101160.44;5055390;28;20021;-63
2021/06/04 03:29:14;;;;;;;10.95;7.30;;;;;;;11.60;72.71;101176.97;5054752;28;20309;-63
2021/06/04 03:31:43;;;;;;;11.32;7.20;;;;;;;11.62;72.38;101166.13;5041583;28;20033;-63
2021/06/04 03:34:09;;;;;;;10.63;7.03;;;;;;;11.63;72.30;101156.47;5055650;28;20033;-64
2021/06/04 03:36:39;;;;;;;10.55;6.50;;;;;;;11.67;72.74;101160.13;5056294;28;20037;-63
2021/06/04 03:39:09;;;;;;;15.65;7.22;;;;;;;11.68;72.21;101159.72;5055354;28;20456;-64
2021/06/04 03:41:35;;;;;;;17.70;7.47;;;;;;;11.76;71.51;101152.94;5053234;28;20144;-63
2021/06/04 03:44:01;;;;;;;11.18;6.78;;;;;;;11.89;71.70;101158.28;5056765;28;20375;-64
2021/06/04 03:46:27;;;;;;;17.00;7.13;;;;;;;11.95;71.70;101153.91;5061012;28;20025;-64
2021/06/04 03:48:53;;;;;;;14.48;7.30;;;;;;;11.97;71.85;101160.75;5062518;28;20021;-64
2021/06/04 03:51:26;;;;;;;14.18;7.63;;;;;;;12.03;71.84;101159.16;5061017;28;20429;-64
2021/06/04 03:53:51;;;;;;;12.60;7.28;;;;;;;12.16;71.19;101156.03;5062488;28;20028;-64
2021/06/04 03:56:18;;;;;;;17.90;6.97;;;;;;;12.26;71.23;101163.72;5061026;28;20078;-65
2021/06/04 03:58:45;;;;;;;13.65;7.63;;;;;;;12.32;71.45;101168.56;5061604;28;20354;-66
2021/06/04 04:01:40;;;;;;;16.45;7.72;;;;;;;12.38;71.66;101169.03;5061080;28;20059;-63
2021/06/04 04:04:06;;;;;;;16.35;7.90;;;;;;;12.45;71.28;101176.69;5041728;28;20033;-64
2021/06/04 04:06:32;;;;;;;14.65;6.82;;;;;;;12.51;71.12;101161.81;5057545;28;20033;-64
2021/06/04 04:08:57;;;;;;;13.98;7.78;;;;;;;12.58;71.56;101170.28;5065381;28;20020;-64
2021/06/04 04:11:23;;;;;;;15.18;7.10;;;;;;;12.63;71.82;101172.75;5070278;28;20412;-63
2021/06/04 04:13:50;;;;;;;12.55;7.35;;;;;;;12.68;72.44;101178.00;5058756;28;20096;-66
2021/06/04 04:16:15;;;;;;;15.07;7.35;;;;;;;12.73;71.98;101173.16;5070495;28;20027;-63
2021/06/04 04:18:41;;;;;;;15.20;7.82;;;;;;;12.77;72.03;101182.44;5065834;28;20096;-64
2021/06/04 04:21:09;;;;;;;23.70;7.78;;;;;;;12.83;71.37;101186.47;5067155;28;20021;-66
2021/06/04 04:23:46;;;;;;;14.45;7.40;;;;;;;12.91;71.42;101185.31;5067865;28;20017;-67
2021/06/04 04:26:14;;;;;;;10.70;7.13;;;;;;;13.01;71.40;101181.69;5067553;28;20429;-63
2021/06/04 04:28:41;;;;;;;13.45;8.00;;;;;;;13.10;71.49;101179.28;5067532;28;20067;-62
2021/06/04 04:31:10;;;;;;;16.33;7.53;;;;;;;13.22;71.68;101178.94;5066584;28;20104;-65
2021/06/04 04:33:35;;;;;;;17.42;8.50;;;;;;;13.37;71.13;101173.28;5068654;28;20058;-63
2021/06/04 04:36:05;;;;;;;13.15;7.57;;;;;;;13.50;70.80;101178.16;5066257;28;20023;-63
2021/06/04 04:38:30;;;;;;;11.00;6.63;;;;;;;13.64;71.84;101176.50;5062103;28;20046;-63
2021/06/04 04:41:00;;;;;;;15.55;8.15;;;;;;;13.76;70.47;101182.56;5063172;28;20090;-66
2021/06/04 04:43:28;;;;;;;14.65;7.10;;;;;;;13.90;69.66;101178.91;5071923;28;20144;-64
2021/06/04 04:45:54;;;;;;;10.95;7.65;;;;;;;14.03;70.29;101182.13;5045361;28;20060;-69
2021/06/04 04:48:20;;;;;;;16.48;6.68;;;;;;;14.14;68.65;101183.69;5042895;28;20344;-67
2021/06/04 04:50:45;;;;;;;16.13;7.15;;;;;;;14.27;68.92;101169.94;5055599;28;20041;-67
2021/06/04 04:53:10;;;;;;;14.07;7.13;;;;;;;14.40;69.18;101184.41;5046590;28;20120;-69
2021/06/04 04:55:39;;;;;;;11.70;7.03;;;;;;;14.52;69.18;101179.16;5045730;28;20057;-67
2021/06/04 04:58:06;;;;;;;10.40;7.05;;;;;;;14.67;69.82;101179.06;5046200;28;20016;-63
2021/06/04 05:00:32;;;;;;;19.73;8.05;;;;;;;14.83;71.09;101179.41;5048743;28;20122;-69
2021/06/04 05:02:59;;;;;;;9.13;6.43;;;;;;;14.96;69.42;101183.34;5044478;28;20415;-65
2021/06/04 05:05:28;;;;;;;9.05;6.43;;;;;;;15.10;69.55;101191.78;5065251;28;20032;-63
2021/06/04 05:07:54;;;;;;;20.42;7.07;;;;;;;15.22;69.14;101186.84;5072450;28;20020;-64
2021/06/04 05:10:20;;;;;;;17.33;7.55;;;;;;;15.32;68.85;101195.25;5068531;28;20361;-65
2021/06/04 05:12:45;;;;;;;16.40;7.00;;;;;;;15.47;69.67;101187.44;5070854;28;20035;-65
2021/06/04 05:15:14;;;;;;;24.02;8.23;;;;;;;15.63;69.89;101179.25;5070445;28;20028;-66
2021/06/04 05:17:41;;;;;;;18.08;7.47;;;;;;;15.79;69.14;101178.69;5068718;28;20464;-64
2021/06/04 05:20:07;;;;;;;13.57;7.28;;;;;;;15.98;68.80;101185.81;5070215;28;20058;-65
2021/06/04 05:22:33;;;;;;;6.45;5.47;;;;;;;16.11;67.72;101184.03;5064938;28;20084;-67
2021/06/04 05:24:59;;;;;;;11.48;6.22;;;;;;;16.19;66.76;101191.25;5070765;28;20032;-64
2021/06/04 05:27:24;;;;;;;13.65;6.40;;;;;;;16.26;66.63;101196.84;5066850;28;20021;-65
2021/06/04 05:29:50;;;;;;;14.38;5.97;;;;;;;16.38;68.26;101193.44;5070399;28;20032;-63
2021/06/04 05:32:16;;;;;;;9.77;5.40;;;;;;;16.53;66.81;101185.56;5068942;28;20066;-61
2021/06/04 05:34:41;;;;;;;6.75;4.82;;;;;;;16.63;65.53;101186.66;5070654;28;20035;-61
2021/06/04 05:37:07;;;;;;;7.00;4.70;;;;;;;16.70;64.98;101180.91;5067109;28;20051;-61
2021/06/04 05:39:32;;;;;;;9.35;4.43;;;;;;;16.79;65.34;101181.22;5057502;28;20297;-61
2021/06/04 05:42:01;;;;;;;7.57;4.30;;;;;;;16.95;64.80;101195.56;5055884;28;20290;-61
2021/06/04 05:44:29;;;;;;;6.20;4.32;;;;;;;17.11;63.69;101185.63;5057239;28;20040;-63
2021/06/04 05:46:57;;;;;;;7.53;4.25;;;;;;;17.29;62.50;101194.69;5056945;28;20036;-61
2021/06/04 05:49:23;;;;;;;9.13;3.95;;;;;;;17.47;61.01;101200.06;5056171;28;20029;-62
2021/06/04 05:51:49;;;;;;;5.00;3.40;;;;;;;17.65;59.69;101194.09;5056963;28;20029;-62
2021/06/04 05:54:16;;;;;;;12.98;4.00;;;;;;;17.83;60.71;101201.13;5057447;28;20021;-62
2021/06/04 05:56:42;;;;;;;8.65;3.70;;;;;;;17.99;59.37;101197.56;5056635;28;20395;-62
2021/06/04 05:59:08;;;;;;;11.15;3.90;;;;;;;18.15;58.27;101200.53;5056928;28;20067;-62
2021/06/04 06:01:36;;;;;;;10.07;4.03;;;;;;;18.31;56.73;101199.00;5057074;28;20021;-61
2021/06/04 06:04:03;;;;;;;7.28;3.45;;;;;;;18.47;56.19;101201.94;5056832;28;20032;-62
2021/06/04 06:06:28;;;;;;;8.10;4.28;;;;;;;18.58;54.84;101204.56;5055389;28;20021;-62
2021/06/04 06:08:54;;;;;;;9.95;3.65;;;;;;;18.71;55.19;101202.69;5056263;28;20027;-62
2021/06/04 06:11:25;;;;;;;7.00;4.05;;;;;;;18.80;54.48;101209.41;5056520;28;20089;-62
2021/06/04 06:13:50;;;;;;;7.78;4.00;;;;;;;18.92;55.94;101212.84;5056978;28;20036;-63
2021/06/04 06:16:16;;;;;;;9.30;3.65;;;;;;;19.04;55.16;101210.09;5055557;28;20336;-62
2021/06/04 06:18:42;;;;;;;5.82;3.45;;;;;;;19.16;54.03;101211.44;5056775;28;20382;-62
2021/06/04 06:21:08;;;;;;;9.60;3.80;;;;;;;19.32;54.90;101207.81;5056489;28;20070;-63
2021/06/04 06:23:37;;;;;;;8.38;4.40;;;;;;;19.48;54.73;101215.59;5056576;28;20408;-62
2021/06/04 06:26:09;;;;;;;6.03;3.30;;;;;;;19.60;54.24;101212.06;5055753;28;20416;-62
2021/06/04 06:28:37;;;;;;;5.20;3.33;;;;;;;19.72;53.85;101209.31;5056483;28;20029;-62
2021/06/04 06:31:06;;;;;;;7.90;3.33;;;;;;;19.87;53.87;101208.94;5056225;28;20033;-61
2021/06/04 06:33:32;;;;;;;11.55;4.15;;;;;;;19.97;52.99;101210.69;5056270;28;20035;-62
2021/06/04 06:36:01;;;;;;;12.93;3.50;;;;;;;20.05;51.79;101218.63;5057658;28;20111;-62
2021/06/04 06:38:28;;;;;;;9.48;4.00;;;;;;;20.15;52.52;101218.78;5056040;28;20045;-62
2021/06/04 06:40:56;;;;;;;8.20;4.75;;;;;;;20.23;51.84;101220.19;5055808;28;20039;-62
2021/06/04 06:43:24;;;;;;;6.13;3.88;;;;;;;20.34;52.75;101221.50;5056121;28;20032;-62
2021/06/04 06:45:49;;;;;;;7.63;3.78;;;;;;;20.42;52.41;101221.34;5056149;28;20013;-63
2021/06/04 06:48:16;;;;;;;5.45;3.22;;;;;;;20.45;49.89;101214.72;5055955;28;20013;-62
2021/06/04 06:50:42;;;;;;;10.25;3.33;;;;;;;20.51;50.29;101216.56;5055922;28;20055;-62
2021/06/04 06:53:09;;;;;;;8.05;3.70;;;;;;;20.58;51.00;101215.56;5056098;28;20029;-62
2021/06/04 06:55:37;;;;;;;9.13;3.60;;;;;;;20.67;51.19;101216.50;5055600;28;20028;-62
2021/06/04 06:58:04;;;;;;;6.70;3.67;;;;;;;20.78;50.62;101218.25;5055975;28;20021;-62
2021/06/04 07:00:38;;;;;;;5.18;2.92;;;;;;;20.86;51.16;101216.78;5055802;28;20021;-62
2021/06/04 07:03:05;;;;;;;8.13;3.40;;;;;;;20.96;49.83;101222.19;5055673;28;20044;-62
2021/06/04 07:05:32;;;;;;;13.48;3.80;;;;;;;21.05;48.97;101227.22;5055803;28;20037;-62
2021/06/04 07:07:57;;;;;;;7.82;2.80;;;;;;;21.12;46.92;101223.34;5055699;28;20107;-63
2021/06/04 07:10:27;;;;;;;6.68;3.10;;;;;;;21.18;46.95;101228.03;5055477;28;20112;-63
2021/06/04 07:12:53;;;;;;;3.92;2.97;;;;;;;21.26;47.14;101218.00;5055826;28;20025;-62
2021/06/04 07:15:19;;;;;;;7.07;3.17;;;;;;;21.35;44.61;101223.03;5055742;28;20035;-62
2021/06/04 07:17:45;;;;;;;7.05;2.83;;;;;;;21.40;44.55;101219.63;5055123;28;20033;-62
2021/06/04 07:20:13;;;;;;;6.82;2.92;;;;;;;21.45;46.60;101223.97;5055439;28;20115;-64
2021/06/04 07:22:39;;;;;;;6.85;2.65;;;;;;;21.45;44.42;101216.19;5055449;28;20036;-61
2021/06/04 07:25:08;;;;;;;13.93;2.75;;;;;;;21.51;45.15;101219.25;5055217;28;20312;-62
2021/06/04 07:27:34;;;;;;;7.22;2.60;;;;;;;21.59;45.23;101223.47;5055201;28;20021;-62
2021/06/04 07:30:00;;;;;;;4.30;2.45;;;;;;;21.67;44.33;101219.13;5055494;28;20084;-62
2021/06/04 07:32:25;;;;;;;5.90;2.78;;;;;;;21.71;44.13;101222.69;5055445;28;20408;-63
2021/06/04 07:34:51;;;;;;;6.28;2.92;;;;;;;21.81;46.07;101220.72;5056614;28;20099;-68
2021/06/04 07:37:16;;;;;;;6.28;2.28;;;;;;;21.95;44.64;101222.28;5055362;28;20048;-64
2021/06/04 07:39:42;;;;;;;8.95;2.97;;;;;;;22.11;43.86;101216.41;5054311;28;20060;-63
2021/06/04 07:42:12;;;;;;;3.50;2.33;;;;;;;22.22;43.54;101208.28;5055598;28;20366;-63
2021/06/04 07:44:38;;;;;;;5.07;2.63;;;;;;;22.31;42.66;101214.06;5055757;28;20029;-63
2021/06/04 07:47:04;;;;;;;6.35;2.42;;;;;;;22.39;42.12;101217.47;5055244;28;20048;-62
2021/06/04 07:49:29;;;;;;;6.75;2.63;;;;;;;22.42;42.26;101222.25;5055744;28;20017;-62
2021/06/04 07:51:58;;;;;;;6.15;2.30;;;;;;;22.45;42.32;101216.41;5055037;28;20433;-62
2021/06/04 07:54:30;;;;;;;9.65;2.50;;;;;;;22.45;41.42;101222.13;5055067;28;20032;-62
2021/06/04 07:56:55;;;;;;;4.97;2.72;;;;;;;22.51;41.87;101226.00;5055049;28;20033;-61
2021/06/04 07:59:22;;;;;;;8.50;2.97;;;;;;;22.59;43.25;101220.81;5055255;28;20051;-63
2021/06/04 08:01:48;;;;;;;11.70;2.88;;;;;;;22.65;42.75;101223.88;5055025;28;20448;-64
2021/06/04 08:04:14;;;;;;;5.85;3.00;;;;;;;22.68;41.57;101222.94;5055090;28;20100;-65
2021/06/04 08:06:40;;;;;;;9.18;2.60;;;;;;;22.70;40.63;101226.13;5054313;28;20035;-67
2021/06/04 08:09:09;;;;;;;5.32;2.53;;;;;;;22.79;41.25;101220.47;5054512;28;20059;-66
2021/06/04 08:11:39;;;;;;;3.88;2.60;;;;;;;22.89;40.60;101225.03;5055278;28;20046;-67
2021/06/04 08:14:07;;;;;;;6.88;2.47;;;;;;;23.01;39.56;101229.88;5054794;28;20037;-67
2021/06/04 08:16:36;;;;;;;3.33;2.20;;;;;;;23.05;39.47;101229.75;5055120;28;20044;-67
2021/06/04 08:19:01;;;;;;;4.65;2.17;;;;;;;23.08;39.28;101223.88;5054841;28;20017;-65
2021/06/04 08:21:40;;;;;;;3.85;2.85;;;;;;;23.11;38.87;101234.41;5055211;28;20036;-65
2021/06/04 08:24:06;;;;;;;6.22;2.70;;;;;;;23.15;40.78;101225.66;5054825;28;20320;-66
2021/06/04 08:26:33;;;;;;;7.47;2.83;;;;;;;23.23;40.48;101231.91;5054999;28;20399;-69
2021/06/04 08:29:01;;;;;;;5.28;2.50;;;;;;;23.36;40.87;101224.00;5055139;28;20112;-67
2021/06/04 08:31:28;;;;;;;6.28;2.45;;;;;;;23.43;39.81;101226.56;5056861;28;20025;-63
2021/06/04 08:33:53;;;;;;;6.13;2.50;;;;;;;23.48;38.79;101228.81;5058887;28;20024;-66
2021/06/04 08:36:23;;;;;;;5.80;2.55;;;;;;;23.48;37.13;101231.69;5059733;28;20435;-65
2021/06/04 08:38:49;;;;;;;4.55;2.53;;;;;;;23.44;35.38;101223.22;5057949;28;20045;-64
2021/06/04 08:41:57;;;;;;;13.93;2.80;;;;;;;23.44;36.73;101228.16;5058657;28;20118;-65
2021/06/04 08:44:28;;;;;;;4.57;2.55;;;;;;;23.44;37.79;101223.22;5067102;28;20036;-64
2021/06/04 08:47:06;;;;;;;6.97;2.63;;;;;;;23.51;38.63;101224.19;5058242;28;20036;-63
2021/06/04 08:49:52;;;;;;;3.67;2.30;;;;;;;23.52;37.58;101212.25;5058489;28;20071;-65
2021/06/04 08:52:27;;;;;;;4.07;2.13;;;;;;;23.59;38.12;101216.94;5058075;28;20041;-64
2021/06/04 08:55:03;;;;;;;6.75;2.42;;;;;;;23.63;36.33;101218.38;5058264;28;20033;-66
2021/06/04 08:57:53;;;;;;;4.75;1.90;;;;;;;23.72;35.03;101203.25;5058069;28;20023;-63
2021/06/04 09:00:26;;;;;;;8.02;2.05;;;;;;;23.77;34.47;101211.25;5058080;28;20029;-63
2021/06/04 09:03:02;;;;;;;3.33;2.08;;;;;;;23.74;34.10;101209.31;5057947;28;20025;-63
2021/06/04 09:05:50;;;;;;;4.30;2.28;;;;;;;23.70;33.52;101205.81;5057717;28;20025;-62
2021/06/04 09:08:20;;;;;;;6.97;2.22;;;;;;;23.78;36.56;101203.44;5057882;28;20036;-63
2021/06/04 09:10:53;;;;;;;2.90;2.10;;;;;;;23.85;35.79;101206.00;5057787;28;20033;-62
2021/06/04 09:13:26;;;;;;;9.98;2.50;;;;;;;23.88;35.16;101199.31;5058135;28;20055;-61
2021/06/04 09:15:58;;;;;;;4.35;2.42;;;;;;;23.98;36.77;101203.78;5058009;28;20033;-61
2021/06/04 09:19:06;;;;;;;4.28;2.33;;;;;;;24.10;36.50;101204.91;5057926;28;20025;-62
2021/06/04 09:21:34;;;;;;;6.05;2.70;;;;;;;24.22;36.83;101198.22;5057509;28;20032;-62
2021/06/04 09:24:02;;;;;;;3.60;2.25;;;;;;;24.28;36.61;101200.00;5057419;28;20371;-62
2021/06/04 09:26:30;;;;;;;7.88;2.53;;;;;;;24.42;36.10;101194.91;5057728;28;20110;-62
2021/06/04 09:29:02;;;;;;;12.15;3.35;;;;;;;24.52;37.69;101190.75;5057533;28;20056;-62
2021/06/04 09:31:44;;;;;;;8.10;3.13;;;;;;;24.67;35.46;101194.56;5057637;28;20032;-65
2021/06/04 09:34:23;;;;;;;7.20;3.53;;;;;;;24.74;35.33;101191.34;5056405;28;20029;-62
2021/06/04 09:36:56;;;;;;;8.70;2.75;;;;;;;24.78;35.90;101194.84;5043931;28;20335;-63
2021/06/04 09:39:34;;;;;;;7.25;3.13;;;;;;;24.83;37.29;101190.53;5057447;28;20013;-62
2021/06/04 09:42:22;;;;;;;6.88;3.00;;;;;;;24.75;35.17;101186.41;5057141;28;20103;-62
2021/06/04 09:45:01;;;;;;;6.18;3.03;;;;;;;24.68;35.07;101187.53;5057571;28;20036;-62
2021/06/04 09:47:32;;;;;;;6.85;3.00;;;;;;;24.58;35.00;101186.72;5042474;28;20037;-62
2021/06/04 09:50:09;;;;;;;7.88;3.00;;;;;;;24.62;37.09;101180.81;5057050;28;20296;-61
2021/06/04 09:52:36;;;;;;;7.18;2.97;;;;;;;24.71;34.34;101180.03;5057136;28;20091;-62
2021/06/04 09:55:08;;;;;;;6.80;3.20;;;;;;;24.76;36.29;101177.28;5057146;28;20033;-61
2021/06/04 09:57:34;;;;;;;;;;;;;;;24.82;35.64;101186.06;5057300;28;20426;-62
2021/06/04 10:00:26;;;;;;;9.45;3.00;;;;;;;24.89;35.41;101182.84;5057039;28;19956;-61
2021/06/04 10:03:21;;;;;;;6.13;2.55;;;;;;;24.96;37.38;101185.38;5056867;28;20324;-64
2021/06/04 10:05:47;;;;;;;4.85;2.50;;;;;;;25.06;35.95;101183.31;5055731;28;20067;-62
2021/06/04 10:08:27;;;;;;;5.50;3.20;;;;;;;25.09;35.09;101176.56;5056744;28;20020;-62
2021/06/04 10:11:12;;;;;;;5.78;3.10;;;;;;;24.99;34.64;101180.78;5056953;28;20052;-62
2021/06/04 10:13:45;;;;;;;4.95;2.83;;;;;;;25.04;36.64;101171.50;5057204;28;20308;-62
2021/06/04 10:19:29;;;;;;;6.82;3.10;;;;;;;25.28;36.51;101169.47;5059370;28;20143;-63
2021/06/04 10:22:25;;;;;;;7.88;3.08;;;;;;;25.40;36.57;101173.41;5056493;28;20021;-63
2021/06/04 10:25:00;;;;;;;6.57;2.63;;;;;;;25.48;35.30;101163.16;5042580;28;20037;-62
2021/06/04 10:27:25;;;;;;;5.60;2.65;;;;;;;25.52;34.99;101173.19;5056496;28;20064;-62
2021/06/04 10:30:17;;;;;;;7.60;2.70;;;;;;;25.42;34.53;101162.19;5056297;28;20051;-64
2021/06/04 10:33:04;;;;;;;6.60;3.03;;;;;;;25.17;33.57;101166.31;5056340;28;20551;-62
2021/06/04 10:35:55;;;;;;;8.80;2.42;;;;;;;25.06;35.15;101161.09;5057630;28;20087;-62
2021/06/04 10:38:38;;;;;;;5.18;3.00;;;;;;;25.07;37.21;101162.69;5055934;28;20044;-61
2021/06/04 10:41:16;;;;;;;6.05;2.80;;;;;;;25.04;35.29;101159.97;5056282;28;20036;-62
2021/06/04 10:44:05;;;;;;;7.20;2.72;;;;;;;25.00;35.21;101150.72;5056123;28;20021;-62
2021/06/04 10:47:06;;;;;;;6.35;2.60;;;;;;;24.98;35.30;101148.31;5056442;28;20025;-62
2021/06/04 10:49:40;;;;;;;3.47;2.67;;;;;;;25.06;38.18;101151.66;5045550;28;20337;-62
2021/06/04 10:52:12;;;;;;;5.22;2.55;;;;;;;25.17;36.50;101149.84;5056167;28;20039;-62
2021/06/04 10:55:00;;;;;;;;;;;;;;;25.36;37.05;101150.56;5056114;28;20028;-63
2021/06/04 10:57:32;;;;;;;8.68;3.05;;;;;;;25.45;36.40;101141.06;5055994;28;19909;-63
2021/06/04 11:00:07;;;;;;;5.68;2.80;;;;;;;25.60;35.21;101147.72;5056246;28;20090;-65
2021/06/04 11:02:44;;;;;;;3.45;2.08;;;;;;;25.67;34.64;101147.38;5055523;28;20021;-63
2021/06/04 11:05:28;;;;;;;5.00;2.70;;;;;;;25.67;34.41;101135.06;5055693;28;20033;-63
2021/06/04 11:08:07;;;;;;;6.85;2.70;;;;;;;25.75;36.49;101142.03;5042296;28;20044;-63
2021/06/04 11:10:53;;;;;;;4.10;2.53;;;;;;;25.90;35.83;101140.00;5055658;28;20375;-62
2021/06/04 11:14:09;;;;;;;5.47;2.80;;;;;;;25.92;33.67;101133.75;5055665;28;20024;-62
2021/06/04 11:16:56;;;;;;;5.30;2.90;;;;;;;25.91;34.32;101135.84;5073462;28;20123;-62
2021/06/04 11:19:35;;;;;;;5.10;2.88;;;;;;;25.94;34.65;101131.97;5052469;28;20033;-62
2021/06/04 11:22:25;;;;;;;7.78;3.10;;;;;;;25.88;34.61;101125.31;5055561;28;20029;-62
2021/06/04 11:25:05;;;;;;;9.15;2.83;;;;;;;25.92;35.81;101128.78;5055552;28;20070;-62
2021/06/04 11:27:40;;;;;;;5.43;2.83;;;;;;;25.98;36.18;101126.81;5055448;28;20029;-62
2021/06/04 11:30:28;;;;;;;4.32;2.60;;;;;;;26.07;34.32;101132.50;5043018;28;20028;-63
2021/06/04 11:33:00;;;;;;;4.10;2.63;;;;;;;26.08;34.11;101125.47;5055185;28;20028;-62
2021/06/04 11:35:29;;;;;;;3.08;2.60;;;;;;;25.99;33.18;101121.84;5056872;28;20321;-63
2021/06/04 11:38:01;;;;;;;3.58;2.15;;;;;;;25.91;34.37;101121.44;5055321;28;20060;-62
2021/06/04 11:40:33;;;;;;;;;;;;;;;25.97;34.65;101119.47;5055772;28;20024;-62
2021/06/04 11:43:14;;;;;;;10.73;2.75;;;;;;;25.97;33.33;101113.69;5055181;28;19909;-62
2021/06/04 11:45:45;;;;;;;7.53;2.67;;;;;;;25.98;33.25;101118.16;5055116;28;20364;-62